Terminal Aerodrome Forecast
Issued by NWS

Home | Current Version | Previous Version | Text Only | Print | Product List | Glossary On
Versions: 1 2 3 4 5 6 7 8 9 10 11 12 13 14
000
FTUS44 KEWX 030901 AAA
TAFSSF
TAF AMD
KSSF 030901Z 0309/0406 16005KT P6SM BKN035
     FM031000 VRB03KT P6SM BKN015
     FM031700 15011KT P6SM BKN040
     FM040300 14010KT P6SM BKN015=

USA.gov is the U.S. government's official web portal to all federal, state and local government web resources and services.